sensor_id;sensor_type;location;lat;lon;timestamp;P1;durP1;ratioP1;P2;durP2;ratioP2
13411;SDS011;67102;51.666;6.880;2023-02-23T00:00:21;17.33;;;14.43;;
13411;SDS011;67102;51.666;6.880;2023-02-23T00:02:47;18.50;;;14.73;;
13411;SDS011;67102;51.666;6.880;2023-02-23T00:05:14;20.07;;;15.27;;
13411;SDS011;67102;51.666;6.880;2023-02-23T00:07:41;19.93;;;14.43;;
13411;SDS011;67102;51.666;6.880;2023-02-23T00:10:08;19.03;;;14.60;;
13411;SDS011;67102;51.666;6.880;2023-02-23T00:12:36;19.03;;;14.60;;
13411;SDS011;67102;51.666;6.880;2023-02-23T00:15:02;17.63;;;15.23;;
13411;SDS011;67102;51.666;6.880;2023-02-23T00:17:31;20.10;;;14.83;;
13411;SDS011;67102;51.666;6.880;2023-02-23T00:19:57;20.70;;;15.83;;
13411;SDS011;67102;51.666;6.880;2023-02-23T00:22:23;20.30;;;15.40;;
13411;SDS011;67102;51.666;6.880;2023-02-23T00:24:49;19.90;;;16.07;;
13411;SDS011;67102;51.666;6.880;2023-02-23T00:27:15;19.17;;;15.80;;
13411;SDS011;67102;51.666;6.880;2023-02-23T00:29:41;21.83;;;16.00;;
13411;SDS011;67102;51.666;6.880;2023-02-23T00:32:07;18.57;;;15.77;;
13411;SDS011;67102;51.666;6.880;2023-02-23T00:34:35;20.70;;;16.03;;
13411;SDS011;67102;51.666;6.880;2023-02-23T00:37:01;21.80;;;16.47;;
13411;SDS011;67102;51.666;6.880;2023-02-23T00:39:27;19.10;;;15.83;;
13411;SDS011;67102;51.666;6.880;2023-02-23T00:41:53;19.37;;;16.00;;
13411;SDS011;67102;51.666;6.880;2023-02-23T00:44:20;21.83;;;16.50;;
13411;SDS011;67102;51.666;6.880;2023-02-23T00:46:47;22.30;;;16.30;;
13411;SDS011;67102;51.666;6.880;2023-02-23T00:49:14;20.33;;;16.90;;
13411;SDS011;67102;51.666;6.880;2023-02-23T00:51:42;19.97;;;15.57;;
13411;SDS011;67102;51.666;6.880;2023-02-23T00:54:09;22.47;;;16.00;;
13411;SDS011;67102;51.666;6.880;2023-02-23T00:56:37;20.83;;;15.97;;
13411;SDS011;67102;51.666;6.880;2023-02-23T00:59:04;21.50;;;16.37;;
13411;SDS011;67102;51.666;6.880;2023-02-23T01:01:29;20.67;;;16.10;;
13411;SDS011;67102;51.666;6.880;2023-02-23T01:03:55;21.00;;;15.77;;
13411;SDS011;67102;51.666;6.880;2023-02-23T01:06:21;21.33;;;16.03;;
13411;SDS011;67102;51.666;6.880;2023-02-23T01:08:50;21.50;;;16.70;;
13411;SDS011;67102;51.666;6.880;2023-02-23T01:11:17;20.73;;;16.57;;
13411;SDS011;67102;51.666;6.880;2023-02-23T01:13:45;21.10;;;16.50;;
13411;SDS011;67102;51.666;6.880;2023-02-23T01:16:14;18.83;;;15.60;;
13411;SDS011;67102;51.666;6.880;2023-02-23T01:18:42;23.70;;;16.70;;
13411;SDS011;67102;51.666;6.880;2023-02-23T01:21:12;20.67;;;15.90;;
13411;SDS011;67102;51.666;6.880;2023-02-23T01:23:40;21.80;;;16.77;;
13411;SDS011;67102;51.666;6.880;2023-02-23T01:26:12;21.03;;;16.30;;
13411;SDS011;67102;51.666;6.880;2023-02-23T01:28:40;21.17;;;16.07;;
13411;SDS011;67102;51.666;6.880;2023-02-23T01:31:07;20.20;;;16.37;;
13411;SDS011;67102;51.666;6.880;2023-02-23T01:33:33;21.73;;;16.23;;
13411;SDS011;67102;51.666;6.880;2023-02-23T01:35:59;20.93;;;16.13;;
13411;SDS011;67102;51.666;6.880;2023-02-23T01:38:25;24.40;;;17.47;;
13411;SDS011;67102;51.666;6.880;2023-02-23T01:40:51;22.40;;;16.43;;
13411;SDS011;67102;51.666;6.880;2023-02-23T01:43:19;22.37;;;16.40;;
13411;SDS011;67102;51.666;6.880;2023-02-23T01:45:46;22.87;;;16.87;;
13411;SDS011;67102;51.666;6.880;2023-02-23T01:48:12;23.30;;;17.30;;
13411;SDS011;67102;51.666;6.880;2023-02-23T01:50:43;22.30;;;16.67;;
13411;SDS011;67102;51.666;6.880;2023-02-23T01:53:13;22.23;;;16.93;;
13411;SDS011;67102;51.666;6.880;2023-02-23T01:55:40;21.97;;;17.07;;
13411;SDS011;67102;51.666;6.880;2023-02-23T01:58:07;22.40;;;17.20;;
13411;SDS011;67102;51.666;6.880;2023-02-23T02:00:38;22.13;;;17.10;;
13411;SDS011;67102;51.666;6.880;2023-02-23T02:03:06;22.00;;;16.87;;
13411;SDS011;67102;51.666;6.880;2023-02-23T02:05:36;23.13;;;16.70;;
13411;SDS011;67102;51.666;6.880;2023-02-23T02:08:03;22.77;;;17.97;;
13411;SDS011;67102;51.666;6.880;2023-02-23T02:10:32;23.47;;;17.77;;
13411;SDS011;67102;51.666;6.880;2023-02-23T02:12:58;22.17;;;17.37;;
13411;SDS011;67102;51.666;6.880;2023-02-23T02:15:24;22.13;;;17.43;;
13411;SDS011;67102;51.666;6.880;2023-02-23T02:18:01;21.83;;;16.70;;
13411;SDS011;67102;51.666;6.880;2023-02-23T02:27:11;21.17;;;15.27;;
13411;SDS011;67102;51.666;6.880;2023-02-23T02:36:24;22.80;;;16.47;;
13411;SDS011;67102;51.666;6.880;2023-02-23T02:39:30;20.50;;;15.30;;
13411;SDS011;67102;51.666;6.880;2023-02-23T02:42:07;20.63;;;16.30;;
13411;SDS011;67102;51.666;6.880;2023-02-23T02:44:46;22.90;;;15.97;;
13411;SDS011;67102;51.666;6.880;2023-02-23T02:47:18;22.03;;;17.27;;
13411;SDS011;67102;51.666;6.880;2023-02-23T02:49:55;21.97;;;16.73;;
13411;SDS011;67102;51.666;6.880;2023-02-23T02:52:30;20.50;;;16.20;;
13411;SDS011;67102;51.666;6.880;2023-02-23T02:55:02;21.63;;;16.73;;
13411;SDS011;67102;51.666;6.880;2023-02-23T02:57:34;21.10;;;16.93;;
13411;SDS011;67102;51.666;6.880;2023-02-23T03:00:03;24.23;;;16.83;;
13411;SDS011;67102;51.666;6.880;2023-02-23T03:02:31;22.23;;;17.03;;
13411;SDS011;67102;51.666;6.880;2023-02-23T03:04:59;20.37;;;15.97;;
13411;SDS011;67102;51.666;6.880;2023-02-23T03:07:27;22.90;;;17.00;;
13411;SDS011;67102;51.666;6.880;2023-02-23T03:10:01;21.53;;;16.03;;
13411;SDS011;67102;51.666;6.880;2023-02-23T03:12:36;25.70;;;17.27;;
13411;SDS011;67102;51.666;6.880;2023-02-23T03:15:08;23.53;;;17.57;;
13411;SDS011;67102;51.666;6.880;2023-02-23T03:17:50;22.07;;;16.20;;
13411;SDS011;67102;51.666;6.880;2023-02-23T03:20:25;23.10;;;17.00;;
13411;SDS011;67102;51.666;6.880;2023-02-23T03:23:04;22.80;;;17.17;;
13411;SDS011;67102;51.666;6.880;2023-02-23T03:25:44;21.87;;;16.70;;
13411;SDS011;67102;51.666;6.880;2023-02-23T03:28:16;24.07;;;16.67;;
13411;SDS011;67102;51.666;6.880;2023-02-23T03:30:47;23.20;;;17.30;;
13411;SDS011;67102;51.666;6.880;2023-02-23T03:33:21;23.40;;;17.83;;
13411;SDS011;67102;51.666;6.880;2023-02-23T03:35:56;23.33;;;16.93;;
13411;SDS011;67102;51.666;6.880;2023-02-23T03:38:31;23.97;;;18.20;;
13411;SDS011;67102;51.666;6.880;2023-02-23T03:41:02;22.10;;;16.60;;
13411;SDS011;67102;51.666;6.880;2023-02-23T03:43:33;24.60;;;18.37;;
13411;SDS011;67102;51.666;6.880;2023-02-23T03:46:03;23.87;;;18.17;;
13411;SDS011;67102;51.666;6.880;2023-02-23T03:48:33;26.60;;;18.60;;
13411;SDS011;67102;51.666;6.880;2023-02-23T03:51:02;23.07;;;17.10;;
13411;SDS011;67102;51.666;6.880;2023-02-23T03:53:34;25.17;;;18.17;;
13411;SDS011;67102;51.666;6.880;2023-02-23T03:56:09;25.40;;;17.83;;
13411;SDS011;67102;51.666;6.880;2023-02-23T03:58:38;26.33;;;17.90;;
13411;SDS011;67102;51.666;6.880;2023-02-23T04:01:07;23.27;;;17.07;;
13411;SDS011;67102;51.666;6.880;2023-02-23T04:03:35;24.90;;;18.23;;
13411;SDS011;67102;51.666;6.880;2023-02-23T04:06:07;26.87;;;18.47;;
13411;SDS011;67102;51.666;6.880;2023-02-23T04:08:37;22.70;;;17.33;;
13411;SDS011;67102;51.666;6.880;2023-02-23T04:11:07;25.67;;;18.97;;
13411;SDS011;67102;51.666;6.880;2023-02-23T04:13:38;24.53;;;18.33;;
13411;SDS011;67102;51.666;6.880;2023-02-23T04:16:07;27.20;;;19.03;;
13411;SDS011;67102;51.666;6.880;2023-02-23T04:18:35;26.23;;;18.50;;
13411;SDS011;67102;51.666;6.880;2023-02-23T04:21:03;24.73;;;18.37;;
13411;SDS011;67102;51.666;6.880;2023-02-23T04:23:31;26.17;;;18.10;;
13411;SDS011;67102;51.666;6.880;2023-02-23T04:25:58;25.33;;;18.43;;
13411;SDS011;67102;51.666;6.880;2023-02-23T04:28:25;27.70;;;19.07;;
13411;SDS011;67102;51.666;6.880;2023-02-23T04:30:52;24.27;;;18.20;;
13411;SDS011;67102;51.666;6.880;2023-02-23T04:33:18;26.47;;;18.97;;
13411;SDS011;67102;51.666;6.880;2023-02-23T04:35:44;27.23;;;19.03;;
13411;SDS011;67102;51.666;6.880;2023-02-23T04:38:10;25.43;;;19.00;;
13411;SDS011;67102;51.666;6.880;2023-02-23T04:40:36;27.27;;;18.53;;
13411;SDS011;67102;51.666;6.880;2023-02-23T04:43:03;25.83;;;18.97;;
13411;SDS011;67102;51.666;6.880;2023-02-23T04:45:29;27.93;;;19.27;;
13411;SDS011;67102;51.666;6.880;2023-02-23T04:47:55;27.70;;;19.00;;
13411;SDS011;67102;51.666;6.880;2023-02-23T04:50:21;26.50;;;18.67;;
13411;SDS011;67102;51.666;6.880;2023-02-23T04:52:47;27.20;;;18.60;;
13411;SDS011;67102;51.666;6.880;2023-02-23T04:55:14;27.97;;;19.33;;
13411;SDS011;67102;51.666;6.880;2023-02-23T04:57:43;26.10;;;18.73;;
13411;SDS011;67102;51.666;6.880;2023-02-23T05:00:11;24.80;;;18.47;;
13411;SDS011;67102;51.666;6.880;2023-02-23T05:02:39;27.93;;;19.07;;
13411;SDS011;67102;51.666;6.880;2023-02-23T05:05:05;27.37;;;18.70;;
13411;SDS011;67102;51.666;6.880;2023-02-23T05:07:32;24.93;;;18.90;;
13411;SDS011;67102;51.666;6.880;2023-02-23T05:09:58;27.07;;;19.17;;
13411;SDS011;67102;51.666;6.880;2023-02-23T05:12:24;28.43;;;19.80;;
13411;SDS011;67102;51.666;6.880;2023-02-23T05:14:50;27.13;;;19.93;;
13411;SDS011;67102;51.666;6.880;2023-02-23T05:17:17;27.73;;;18.97;;
13411;SDS011;67102;51.666;6.880;2023-02-23T05:19:43;30.70;;;19.53;;
13411;SDS011;67102;51.666;6.880;2023-02-23T05:22:09;27.73;;;18.93;;
13411;SDS011;67102;51.666;6.880;2023-02-23T05:24:35;27.67;;;19.43;;
13411;SDS011;67102;51.666;6.880;2023-02-23T05:27:01;28.73;;;19.80;;
13411;SDS011;67102;51.666;6.880;2023-02-23T05:29:27;28.73;;;19.20;;
13411;SDS011;67102;51.666;6.880;2023-02-23T05:31:53;27.93;;;19.23;;
13411;SDS011;67102;51.666;6.880;2023-02-23T05:34:20;31.53;;;20.20;;
13411;SDS011;67102;51.666;6.880;2023-02-23T05:36:46;30.23;;;20.67;;
13411;SDS011;67102;51.666;6.880;2023-02-23T05:39:12;31.70;;;21.80;;
13411;SDS011;67102;51.666;6.880;2023-02-23T05:41:38;30.97;;;20.57;;
13411;SDS011;67102;51.666;6.880;2023-02-23T05:44:04;29.80;;;19.70;;
13411;SDS011;67102;51.666;6.880;2023-02-23T05:46:29;28.73;;;19.47;;
13411;SDS011;67102;51.666;6.880;2023-02-23T05:48:56;30.50;;;20.50;;
13411;SDS011;67102;51.666;6.880;2023-02-23T05:51:26;29.37;;;20.63;;
13411;SDS011;67102;51.666;6.880;2023-02-23T05:53:53;29.70;;;20.33;;
13411;SDS011;67102;51.666;6.880;2023-02-23T05:56:19;30.17;;;20.20;;
13411;SDS011;67102;51.666;6.880;2023-02-23T05:58:45;30.93;;;19.73;;
13411;SDS011;67102;51.666;6.880;2023-02-23T06:01:11;31.23;;;20.93;;
13411;SDS011;67102;51.666;6.880;2023-02-23T06:03:37;29.90;;;20.83;;
13411;SDS011;67102;51.666;6.880;2023-02-23T06:06:03;29.80;;;20.73;;
13411;SDS011;67102;51.666;6.880;2023-02-23T06:08:31;32.27;;;21.03;;
13411;SDS011;67102;51.666;6.880;2023-02-23T06:10:58;33.47;;;21.87;;
13411;SDS011;67102;51.666;6.880;2023-02-23T06:13:25;30.57;;;21.87;;
13411;SDS011;67102;51.666;6.880;2023-02-23T06:15:51;30.40;;;20.67;;
13411;SDS011;67102;51.666;6.880;2023-02-23T06:18:16;28.47;;;19.20;;
13411;SDS011;67102;51.666;6.880;2023-02-23T06:20:42;28.97;;;20.47;;
13411;SDS011;67102;51.666;6.880;2023-02-23T06:23:10;31.43;;;20.30;;
13411;SDS011;67102;51.666;6.880;2023-02-23T06:25:37;31.87;;;21.47;;
13411;SDS011;67102;51.666;6.880;2023-02-23T06:28:04;31.90;;;21.47;;
13411;SDS011;67102;51.666;6.880;2023-02-23T06:30:30;30.90;;;21.20;;
13411;SDS011;67102;51.666;6.880;2023-02-23T06:32:55;30.17;;;20.83;;
13411;SDS011;67102;51.666;6.880;2023-02-23T06:35:21;33.67;;;22.70;;
13411;SDS011;67102;51.666;6.880;2023-02-23T06:37:47;31.43;;;21.20;;
13411;SDS011;67102;51.666;6.880;2023-02-23T06:40:13;33.07;;;21.70;;
13411;SDS011;67102;51.666;6.880;2023-02-23T06:42:41;31.80;;;22.33;;
13411;SDS011;67102;51.666;6.880;2023-02-23T06:45:07;34.40;;;22.57;;
13411;SDS011;67102;51.666;6.880;2023-02-23T06:47:35;32.60;;;21.40;;
13411;SDS011;67102;51.666;6.880;2023-02-23T06:50:01;32.13;;;21.27;;
13411;SDS011;67102;51.666;6.880;2023-02-23T06:52:27;30.63;;;21.13;;
13411;SDS011;67102;51.666;6.880;2023-02-23T06:54:53;32.47;;;21.33;;
13411;SDS011;67102;51.666;6.880;2023-02-23T06:57:19;31.70;;;20.50;;
13411;SDS011;67102;51.666;6.880;2023-02-23T06:59:47;33.93;;;21.83;;
13411;SDS011;67102;51.666;6.880;2023-02-23T07:02:13;33.63;;;21.70;;
13411;SDS011;67102;51.666;6.880;2023-02-23T07:04:38;33.40;;;21.97;;
13411;SDS011;67102;51.666;6.880;2023-02-23T07:07:04;32.60;;;21.27;;
13411;SDS011;67102;51.666;6.880;2023-02-23T07:09:30;32.10;;;21.20;;
13411;SDS011;67102;51.666;6.880;2023-02-23T07:11:56;32.83;;;21.63;;
13411;SDS011;67102;51.666;6.880;2023-02-23T07:14:23;34.73;;;21.87;;
13411;SDS011;67102;51.666;6.880;2023-02-23T07:16:50;35.43;;;21.37;;
13411;SDS011;67102;51.666;6.880;2023-02-23T07:19:16;33.00;;;21.40;;
13411;SDS011;67102;51.666;6.880;2023-02-23T07:21:42;31.47;;;20.97;;
13411;SDS011;67102;51.666;6.880;2023-02-23T07:24:08;33.20;;;22.37;;
13411;SDS011;67102;51.666;6.880;2023-02-23T07:26:34;33.03;;;21.83;;
13411;SDS011;67102;51.666;6.880;2023-02-23T07:29:00;33.33;;;21.37;;
13411;SDS011;67102;51.666;6.880;2023-02-23T07:31:27;33.93;;;22.07;;
13411;SDS011;67102;51.666;6.880;2023-02-23T07:33:54;33.77;;;22.27;;
13411;SDS011;67102;51.666;6.880;2023-02-23T07:36:20;33.53;;;21.87;;
13411;SDS011;67102;51.666;6.880;2023-02-23T07:38:47;32.30;;;22.23;;
13411;SDS011;67102;51.666;6.880;2023-02-23T07:41:13;30.80;;;20.67;;
13411;SDS011;67102;51.666;6.880;2023-02-23T07:43:38;30.50;;;21.63;;
13411;SDS011;67102;51.666;6.880;2023-02-23T07:46:04;32.30;;;21.30;;
13411;SDS011;67102;51.666;6.880;2023-02-23T07:48:30;32.43;;;21.13;;
13411;SDS011;67102;51.666;6.880;2023-02-23T07:50:58;30.93;;;22.10;;
13411;SDS011;67102;51.666;6.880;2023-02-23T07:53:24;36.10;;;21.90;;
13411;SDS011;67102;51.666;6.880;2023-02-23T07:55:54;32.47;;;22.37;;
13411;SDS011;67102;51.666;6.880;2023-02-23T07:58:21;31.47;;;21.20;;
13411;SDS011;67102;51.666;6.880;2023-02-23T08:00:47;32.87;;;21.07;;
13411;SDS011;67102;51.666;6.880;2023-02-23T08:03:13;33.80;;;21.57;;
13411;SDS011;67102;51.666;6.880;2023-02-23T08:05:39;31.37;;;21.83;;
13411;SDS011;67102;51.666;6.880;2023-02-23T08:08:06;34.00;;;23.03;;
13411;SDS011;67102;51.666;6.880;2023-02-23T08:10:32;31.93;;;21.43;;
13411;SDS011;67102;51.666;6.880;2023-02-23T08:12:58;34.53;;;21.50;;
13411;SDS011;67102;51.666;6.880;2023-02-23T08:15:24;30.77;;;20.37;;
13411;SDS011;67102;51.666;6.880;2023-02-23T08:17:50;31.17;;;20.87;;
13411;SDS011;67102;51.666;6.880;2023-02-23T08:20:16;29.10;;;19.70;;
13411;SDS011;67102;51.666;6.880;2023-02-23T08:22:42;29.53;;;19.23;;
13411;SDS011;67102;51.666;6.880;2023-02-23T08:25:09;27.90;;;18.63;;
13411;SDS011;67102;51.666;6.880;2023-02-23T08:27:35;26.83;;;18.73;;
13411;SDS011;67102;51.666;6.880;2023-02-23T08:30:03;29.23;;;18.53;;
13411;SDS011;67102;51.666;6.880;2023-02-23T08:32:31;28.53;;;18.17;;
13411;SDS011;67102;51.666;6.880;2023-02-23T08:34:58;27.57;;;17.80;;
13411;SDS011;67102;51.666;6.880;2023-02-23T08:37:23;27.53;;;18.00;;
13411;SDS011;67102;51.666;6.880;2023-02-23T08:39:49;26.27;;;17.37;;
13411;SDS011;67102;51.666;6.880;2023-02-23T08:42:17;27.17;;;17.60;;
13411;SDS011;67102;51.666;6.880;2023-02-23T08:44:42;26.00;;;16.90;;
13411;SDS011;67102;51.666;6.880;2023-02-23T08:47:08;24.60;;;16.77;;
13411;SDS011;67102;51.666;6.880;2023-02-23T08:49:34;25.53;;;16.93;;
13411;SDS011;67102;51.666;6.880;2023-02-23T08:52:00;23.63;;;15.77;;
13411;SDS011;67102;51.666;6.880;2023-02-23T08:54:26;25.50;;;17.37;;
13411;SDS011;67102;51.666;6.880;2023-02-23T08:56:54;24.00;;;16.37;;
13411;SDS011;67102;51.666;6.880;2023-02-23T08:59:22;24.07;;;16.83;;
13411;SDS011;67102;51.666;6.880;2023-02-23T09:01:48;25.30;;;16.77;;
13411;SDS011;67102;51.666;6.880;2023-02-23T09:04:14;23.87;;;15.97;;
13411;SDS011;67102;51.666;6.880;2023-02-23T09:06:40;23.50;;;16.57;;
13411;SDS011;67102;51.666;6.880;2023-02-23T09:09:05;25.30;;;16.30;;
13411;SDS011;67102;51.666;6.880;2023-02-23T09:11:31;22.83;;;16.43;;
13411;SDS011;67102;51.666;6.880;2023-02-23T09:13:57;24.27;;;16.40;;
13411;SDS011;67102;51.666;6.880;2023-02-23T09:16:25;24.57;;;16.50;;
13411;SDS011;67102;51.666;6.880;2023-02-23T09:18:51;22.27;;;16.03;;
13411;SDS011;67102;51.666;6.880;2023-02-23T09:21:17;21.60;;;15.43;;
13411;SDS011;67102;51.666;6.880;2023-02-23T09:23:45;22.70;;;15.97;;
13411;SDS011;67102;51.666;6.880;2023-02-23T09:26:12;23.90;;;16.97;;
13411;SDS011;67102;51.666;6.880;2023-02-23T09:28:38;23.60;;;16.70;;
13411;SDS011;67102;51.666;6.880;2023-02-23T09:31:04;23.13;;;16.20;;
13411;SDS011;67102;51.666;6.880;2023-02-23T09:33:35;20.90;;;15.80;;
13411;SDS011;67102;51.666;6.880;2023-02-23T09:36:03;21.93;;;15.13;;
13411;SDS011;67102;51.666;6.880;2023-02-23T09:38:30;21.43;;;14.83;;
13411;SDS011;67102;51.666;6.880;2023-02-23T09:40:56;22.37;;;15.43;;
13411;SDS011;67102;51.666;6.880;2023-02-23T09:43:24;19.33;;;13.63;;
13411;SDS011;67102;51.666;6.880;2023-02-23T09:45:57;21.43;;;14.63;;
13411;SDS011;67102;51.666;6.880;2023-02-23T09:48:34;18.53;;;13.33;;
13411;SDS011;67102;51.666;6.880;2023-02-23T09:51:00;19.63;;;14.23;;
13411;SDS011;67102;51.666;6.880;2023-02-23T09:53:31;18.67;;;13.50;;
13411;SDS011;67102;51.666;6.880;2023-02-23T09:56:05;20.80;;;14.40;;
13411;SDS011;67102;51.666;6.880;2023-02-23T09:58:36;19.00;;;13.67;;
13411;SDS011;67102;51.666;6.880;2023-02-23T10:04:09;19.10;;;13.33;;
13411;SDS011;67102;51.666;6.880;2023-02-23T10:06:42;21.20;;;14.37;;
13411;SDS011;67102;51.666;6.880;2023-02-23T10:09:15;21.37;;;13.60;;
13411;SDS011;67102;51.666;6.880;2023-02-23T10:11:51;19.77;;;12.83;;
13411;SDS011;67102;51.666;6.880;2023-02-23T10:14:29;19.47;;;13.13;;
13411;SDS011;67102;51.666;6.880;2023-02-23T10:17:25;17.60;;;12.57;;
13411;SDS011;67102;51.666;6.880;2023-02-23T10:20:05;19.10;;;13.73;;
13411;SDS011;67102;51.666;6.880;2023-02-23T10:22:43;18.93;;;13.23;;
13411;SDS011;67102;51.666;6.880;2023-02-23T10:25:13;20.53;;;14.17;;
13411;SDS011;67102;51.666;6.880;2023-02-23T10:27:44;18.93;;;13.87;;
13411;SDS011;67102;51.666;6.880;2023-02-23T10:30:17;18.63;;;13.80;;
13411;SDS011;67102;51.666;6.880;2023-02-23T10:32:48;19.20;;;12.87;;
13411;SDS011;67102;51.666;6.880;2023-02-23T10:35:21;17.57;;;13.13;;
13411;SDS011;67102;51.666;6.880;2023-02-23T10:37:48;17.50;;;12.70;;
13411;SDS011;67102;51.666;6.880;2023-02-23T10:40:16;14.47;;;11.00;;
13411;SDS011;67102;51.666;6.880;2023-02-23T10:42:44;16.70;;;12.13;;
13411;SDS011;67102;51.666;6.880;2023-02-23T10:45:13;15.60;;;11.13;;
13411;SDS011;67102;51.666;6.880;2023-02-23T10:47:41;15.20;;;10.60;;
13411;SDS011;67102;51.666;6.880;2023-02-23T10:50:08;14.60;;;11.53;;
13411;SDS011;67102;51.666;6.880;2023-02-23T10:52:39;16.57;;;11.83;;
13411;SDS011;67102;51.666;6.880;2023-02-23T10:55:19;16.03;;;11.70;;
13411;SDS011;67102;51.666;6.880;2023-02-23T10:57:48;15.73;;;11.20;;
13411;SDS011;67102;51.666;6.880;2023-02-23T11:00:23;15.73;;;11.77;;
13411;SDS011;67102;51.666;6.880;2023-02-23T11:02:51;15.13;;;11.13;;
13411;SDS011;67102;51.666;6.880;2023-02-23T11:05:31;15.40;;;12.17;;
13411;SDS011;67102;51.666;6.880;2023-02-23T11:08:09;15.33;;;11.90;;
13411;SDS011;67102;51.666;6.880;2023-02-23T11:10:43;16.60;;;11.63;;
13411;SDS011;67102;51.666;6.880;2023-02-23T11:13:28;14.23;;;10.50;;
13411;SDS011;67102;51.666;6.880;2023-02-23T11:16:02;17.70;;;11.83;;
13411;SDS011;67102;51.666;6.880;2023-02-23T11:18:32;16.50;;;11.93;;
13411;SDS011;67102;51.666;6.880;2023-02-23T11:20:58;17.60;;;11.87;;
13411;SDS011;67102;51.666;6.880;2023-02-23T11:23:25;16.73;;;11.73;;
13411;SDS011;67102;51.666;6.880;2023-02-23T11:25:56;15.83;;;11.40;;
13411;SDS011;67102;51.666;6.880;2023-02-23T11:28:26;15.93;;;11.30;;
13411;SDS011;67102;51.666;6.880;2023-02-23T11:30:56;14.23;;;10.70;;
13411;SDS011;67102;51.666;6.880;2023-02-23T11:33:26;15.00;;;10.90;;
13411;SDS011;67102;51.666;6.880;2023-02-23T11:35:56;16.30;;;11.63;;
13411;SDS011;67102;51.666;6.880;2023-02-23T11:38:24;15.53;;;11.30;;
13411;SDS011;67102;51.666;6.880;2023-02-23T11:41:00;15.53;;;12.03;;
13411;SDS011;67102;51.666;6.880;2023-02-23T11:43:28;15.63;;;11.70;;
13411;SDS011;67102;51.666;6.880;2023-02-23T11:45:54;15.57;;;11.40;;
13411;SDS011;67102;51.666;6.880;2023-02-23T11:48:25;16.30;;;11.33;;
13411;SDS011;67102;51.666;6.880;2023-02-23T11:50:55;15.37;;;11.67;;
13411;SDS011;67102;51.666;6.880;2023-02-23T11:53:24;16.30;;;11.63;;
13411;SDS011;67102;51.666;6.880;2023-02-23T11:55:57;16.93;;;12.57;;
13411;SDS011;67102;51.666;6.880;2023-02-23T11:58:26;14.93;;;11.53;;
13411;SDS011;67102;51.666;6.880;2023-02-23T12:00:59;16.10;;;12.17;;
13411;SDS011;67102;51.666;6.880;2023-02-23T12:03:29;17.77;;;11.70;;
13411;SDS011;67102;51.666;6.880;2023-02-23T12:05:57;16.37;;;12.47;;
13411;SDS011;67102;51.666;6.880;2023-02-23T12:11:09;16.67;;;12.03;;
13411;SDS011;67102;51.666;6.880;2023-02-23T12:13:40;17.70;;;12.60;;
13411;SDS011;67102;51.666;6.880;2023-02-23T12:16:10;16.43;;;12.37;;
13411;SDS011;67102;51.666;6.880;2023-02-23T12:18:44;18.43;;;12.43;;
13411;SDS011;67102;51.666;6.880;2023-02-23T12:21:19;16.50;;;11.17;;
13411;SDS011;67102;51.666;6.880;2023-02-23T12:23:57;18.10;;;12.30;;
13411;SDS011;67102;51.666;6.880;2023-02-23T12:26:37;16.87;;;12.30;;
13411;SDS011;67102;51.666;6.880;2023-02-23T12:29:14;16.00;;;12.37;;
13411;SDS011;67102;51.666;6.880;2023-02-23T12:31:46;17.13;;;12.50;;
13411;SDS011;67102;51.666;6.880;2023-02-23T12:34:16;16.03;;;11.63;;
13411;SDS011;67102;51.666;6.880;2023-02-23T12:36:49;16.87;;;12.00;;
13411;SDS011;67102;51.666;6.880;2023-02-23T12:39:22;16.67;;;11.80;;
13411;SDS011;67102;51.666;6.880;2023-02-23T12:41:54;14.07;;;10.70;;
13411;SDS011;67102;51.666;6.880;2023-02-23T12:44:34;14.17;;;10.27;;
13411;SDS011;67102;51.666;6.880;2023-02-23T12:47:07;13.93;;;10.50;;
13411;SDS011;67102;51.666;6.880;2023-02-23T12:49:43;14.80;;;10.50;;
13411;SDS011;67102;51.666;6.880;2023-02-23T12:52:16;15.23;;;10.37;;
13411;SDS011;67102;51.666;6.880;2023-02-23T12:54:48;12.77;;;9.63;;
13411;SDS011;67102;51.666;6.880;2023-02-23T12:57:17;12.53;;;9.47;;
13411;SDS011;67102;51.666;6.880;2023-02-23T13:02:57;12.67;;;9.33;;
13411;SDS011;67102;51.666;6.880;2023-02-23T13:05:59;13.10;;;9.33;;
13411;SDS011;67102;51.666;6.880;2023-02-23T13:08:40;11.73;;;8.83;;
13411;SDS011;67102;51.666;6.880;2023-02-23T13:11:26;9.77;;;7.93;;
13411;SDS011;67102;51.666;6.880;2023-02-23T13:14:28;12.20;;;9.27;;
13411;SDS011;67102;51.666;6.880;2023-02-23T13:17:02;12.13;;;8.87;;
13411;SDS011;67102;51.666;6.880;2023-02-23T13:19:33;10.97;;;8.10;;
13411;SDS011;67102;51.666;6.880;2023-02-23T13:22:15;9.83;;;7.93;;
13411;SDS011;67102;51.666;6.880;2023-02-23T13:24:54;12.03;;;8.90;;
13411;SDS011;67102;51.666;6.880;2023-02-23T13:27:28;10.30;;;8.50;;
13411;SDS011;67102;51.666;6.880;2023-02-23T13:29:59;11.57;;;8.50;;
13411;SDS011;67102;51.666;6.880;2023-02-23T13:32:27;11.40;;;8.73;;
13411;SDS011;67102;51.666;6.880;2023-02-23T13:34:57;11.27;;;8.63;;
13411;SDS011;67102;51.666;6.880;2023-02-23T13:37:25;11.03;;;8.20;;
13411;SDS011;67102;51.666;6.880;2023-02-23T13:39:57;11.63;;;9.00;;
13411;SDS011;67102;51.666;6.880;2023-02-23T13:42:35;11.10;;;8.20;;
13411;SDS011;67102;51.666;6.880;2023-02-23T13:45:19;11.37;;;8.80;;
13411;SDS011;67102;51.666;6.880;2023-02-23T13:47:55;11.07;;;8.00;;
13411;SDS011;67102;51.666;6.880;2023-02-23T13:50:29;11.27;;;8.33;;
13411;SDS011;67102;51.666;6.880;2023-02-23T13:53:06;10.80;;;8.30;;
13411;SDS011;67102;51.666;6.880;2023-02-23T13:55:57;10.23;;;7.83;;
13411;SDS011;67102;51.666;6.880;2023-02-23T13:58:27;11.27;;;8.00;;
13411;SDS011;67102;51.666;6.880;2023-02-23T14:01:06;10.10;;;7.87;;
13411;SDS011;67102;51.666;6.880;2023-02-23T14:03:38;12.13;;;8.33;;
13411;SDS011;67102;51.666;6.880;2023-02-23T14:06:11;11.53;;;7.97;;
13411;SDS011;67102;51.666;6.880;2023-02-23T14:08:42;9.90;;;7.40;;
13411;SDS011;67102;51.666;6.880;2023-02-23T14:11:26;10.77;;;8.30;;
13411;SDS011;67102;51.666;6.880;2023-02-23T14:14:14;9.37;;;7.63;;
13411;SDS011;67102;51.666;6.880;2023-02-23T14:17:09;9.47;;;7.93;;
13411;SDS011;67102;51.666;6.880;2023-02-23T14:20:11;9.03;;;7.10;;
13411;SDS011;67102;51.666;6.880;2023-02-23T14:29:20;10.13;;;7.43;;
13411;SDS011;67102;51.666;6.880;2023-02-23T14:31:54;9.87;;;7.90;;
13411;SDS011;67102;51.666;6.880;2023-02-23T14:34:42;11.07;;;9.00;;
13411;SDS011;67102;51.666;6.880;2023-02-23T14:37:23;12.47;;;8.50;;
13411;SDS011;67102;51.666;6.880;2023-02-23T14:39:52;13.50;;;8.80;;
13411;SDS011;67102;51.666;6.880;2023-02-23T14:42:22;12.93;;;8.80;;
13411;SDS011;67102;51.666;6.880;2023-02-23T14:44:52;10.60;;;8.03;;
13411;SDS011;67102;51.666;6.880;2023-02-23T14:47:20;10.50;;;8.17;;
13411;SDS011;67102;51.666;6.880;2023-02-23T14:49:48;13.17;;;9.00;;
13411;SDS011;67102;51.666;6.880;2023-02-23T14:52:20;10.83;;;8.13;;
13411;SDS011;67102;51.666;6.880;2023-02-23T14:54:48;13.13;;;9.10;;
13411;SDS011;67102;51.666;6.880;2023-02-23T14:57:15;15.27;;;12.23;;
13411;SDS011;67102;51.666;6.880;2023-02-23T14:59:49;14.77;;;10.53;;
13411;SDS011;67102;51.666;6.880;2023-02-23T15:02:21;13.47;;;10.10;;
13411;SDS011;67102;51.666;6.880;2023-02-23T15:04:49;12.27;;;9.33;;
13411;SDS011;67102;51.666;6.880;2023-02-23T15:07:17;13.20;;;9.23;;